createdAt,value
2023-04-18T00:02:03.558Z,8.82
2023-04-18T00:07:08.720Z,9.06
2023-04-18T00:18:33.315Z,9.22
2023-04-18T00:23:54.036Z,8.97
2023-04-18T00:28:53.570Z,9.34
2023-04-18T00:34:03.033Z,9.00
2023-04-18T00:39:03.173Z,9.19
2023-04-18T00:44:07.022Z,8.77
2023-04-18T00:49:22.782Z,8.81
2023-04-18T00:54:24.468Z,8.69
2023-04-18T00:59:27.683Z,9.16
2023-04-18T01:04:31.682Z,8.99
2023-04-18T01:09:32.500Z,9.06
2023-04-18T01:14:37.129Z,8.99
2023-04-18T01:19:47.020Z,9.14
2023-04-18T01:24:55.550Z,8.54
2023-04-18T01:29:59.731Z,8.70
2023-04-18T01:35:02.430Z,8.61
2023-04-18T01:40:05.223Z,8.63
2023-04-18T01:45:03.344Z,9.13
2023-04-18T01:50:10.418Z,9.08
2023-04-18T01:55:28.045Z,8.87
2023-04-18T02:00:27.485Z,8.46
2023-04-18T02:05:26.657Z,9.02
2023-04-18T02:10:27.729Z,8.79
2023-04-18T02:15:29.178Z,8.42
2023-04-18T02:20:31.196Z,8.84
2023-04-18T02:25:33.186Z,8.36
2023-04-18T02:30:33.103Z,8.68
2023-04-18T02:35:37.553Z,8.38
2023-04-18T02:40:40.283Z,8.39
2023-04-18T02:45:45.602Z,8.92
2023-04-18T02:50:54.846Z,8.77
2023-04-18T02:55:53.139Z,8.80
2023-04-18T03:01:05.891Z,8.36
2023-04-18T03:06:29.964Z,8.58
2023-04-18T03:11:32.281Z,8.44
2023-04-18T03:16:29.989Z,8.45
2023-04-18T03:21:33.628Z,8.53
2023-04-18T03:26:39.085Z,8.56
2023-04-18T03:31:40.902Z,8.83
2023-04-18T03:36:38.980Z,8.63
2023-04-18T03:41:38.039Z,8.77
2023-04-18T03:46:38.710Z,9.08
2023-04-18T03:51:47.318Z,9.13
2023-04-18T03:56:45.533Z,8.63
2023-04-18T04:01:43.932Z,8.85
2023-04-18T04:06:45.268Z,9.18
2023-04-18T04:11:42.874Z,9.18
2023-04-18T04:16:44.190Z,9.32
2023-04-18T04:21:43.589Z,9.66
2023-04-18T04:26:44.251Z,9.59
2023-04-18T04:31:59.478Z,9.76
2023-04-18T04:37:02.981Z,9.77
2023-04-18T04:42:03.936Z,9.93
2023-04-18T04:47:10.015Z,9.38
2023-04-18T04:52:09.410Z,9.39
2023-04-18T04:57:08.713Z,9.37
2023-04-18T05:02:05.916Z,9.55
2023-04-18T05:07:06.881Z,9.43
2023-04-18T05:12:04.668Z,9.54
2023-04-18T05:17:04.480Z,10.23
2023-04-18T05:22:03.643Z,10.26
2023-04-18T05:27:06.920Z,10.07
2023-04-18T05:32:10.757Z,10.75
2023-04-18T05:37:08.117Z,10.95
2023-04-18T05:42:07.428Z,11.18
2023-04-18T05:47:06.929Z,11.32
2023-04-18T05:52:04.334Z,11.74
2023-04-18T05:57:04.542Z,11.65
2023-04-18T06:02:02.737Z,11.75
2023-04-18T06:07:02.188Z,11.63
2023-04-18T06:12:04.388Z,11.35
2023-04-18T06:17:02.364Z,11.84
2023-04-18T06:22:00.855Z,11.37
2023-04-18T06:26:58.190Z,11.60
2023-04-18T06:31:57.208Z,12.13
2023-04-18T06:36:55.647Z,11.93
2023-04-18T06:41:52.762Z,11.84
2023-04-18T06:46:59.316Z,12.72
2023-04-18T06:52:01.470Z,12.16
2023-04-18T06:56:59.057Z,12.87
2023-04-18T07:01:56.362Z,12.58
2023-04-18T07:06:56.332Z,13.16
2023-04-18T07:11:56.300Z,12.52
2023-04-18T07:16:57.334Z,12.68
2023-04-18T07:21:55.493Z,13.06
2023-04-18T07:26:56.363Z,12.95
2023-04-18T07:37:22.151Z,13.39
2023-04-18T07:42:26.545Z,13.87
2023-04-18T07:47:47.297Z,13.79
2023-04-18T07:53:04.219Z,13.69
2023-04-18T07:58:24.006Z,13.10
2023-04-18T08:04:04.491Z,13.26
2023-04-18T08:14:57.509Z,13.10
2023-04-18T08:20:06.764Z,13.26
2023-04-18T08:25:07.461Z,13.27
2023-04-18T08:30:08.009Z,12.96
2023-04-18T08:35:10.919Z,13.26
2023-04-18T08:40:08.763Z,13.70
2023-04-18T08:45:14.444Z,13.98
2023-04-18T08:50:16.249Z,13.58
2023-04-18T08:55:14.970Z,14.12
2023-04-18T09:00:14.434Z,13.69
2023-04-18T09:05:13.381Z,14.29
2023-04-18T09:10:11.998Z,14.80
2023-04-18T09:15:14.046Z,15.23
2023-04-18T09:20:12.387Z,15.25
2023-04-18T09:25:09.820Z,15.85
2023-04-18T09:30:08.571Z,15.73
2023-04-18T09:35:08.155Z,15.68
2023-04-18T09:40:27.031Z,15.73
2023-04-18T09:45:30.009Z,15.06
2023-04-18T09:50:30.879Z,15.17
2023-04-18T09:55:31.443Z,14.73
2023-04-18T10:00:30.861Z,14.63
2023-04-18T10:05:36.262Z,14.32
2023-04-18T10:10:39.081Z,14.49
2023-04-18T10:15:37.549Z,14.77
2023-04-18T10:20:38.856Z,14.68
2023-04-18T10:25:51.950Z,14.78
2023-04-18T10:31:02.392Z,14.71
2023-04-18T10:36:20.881Z,14.60
2023-04-18T10:41:29.175Z,14.24
2023-04-18T10:46:32.281Z,14.65
2023-04-18T10:51:54.758Z,14.24
2023-04-18T10:56:58.056Z,14.31
2023-04-18T11:01:59.585Z,14.98
2023-04-18T11:06:58.242Z,15.70
2023-04-18T11:12:10.145Z,15.40
2023-04-18T11:17:20.078Z,15.58
2023-04-18T11:22:20.881Z,15.38
2023-04-18T11:27:18.159Z,15.59
2023-04-18T11:32:23.836Z,16.32
2023-04-18T11:37:37.069Z,16.04
2023-04-18T11:42:45.279Z,16.72
2023-04-18T11:48:04.205Z,16.80
2023-04-18T11:53:02.154Z,16.56
2023-04-18T11:58:00.770Z,16.32
2023-04-18T12:09:00.536Z,16.39
2023-04-18T12:14:02.496Z,16.34
2023-04-18T12:19:06.028Z,16.10
2023-04-18T12:24:19.312Z,16.31
2023-04-18T12:29:29.601Z,16.47
2023-04-18T12:34:39.824Z,16.88
2023-04-18T12:39:53.968Z,16.32
2023-04-18T12:45:25.665Z,15.75
2023-04-18T12:50:40.765Z,15.85
2023-04-18T12:55:48.572Z,15.95
2023-04-18T13:01:13.937Z,16.09
2023-04-18T13:12:13.053Z,17.17
2023-04-18T13:23:02.667Z,16.57
2023-04-18T13:28:04.047Z,16.85
2023-04-18T13:33:08.544Z,16.63
2023-04-18T13:38:25.417Z,16.49
2023-04-18T13:43:32.171Z,15.93
2023-04-18T13:48:43.966Z,16.08
2023-04-18T14:00:21.936Z,15.82
2023-04-18T14:05:32.720Z,15.98
2023-04-18T14:11:14.042Z,16.20
2023-04-18T14:16:32.568Z,15.98
2023-04-18T14:21:39.117Z,16.19
2023-04-18T14:26:44.148Z,16.19
2023-04-18T14:31:47.419Z,16.04
2023-04-18T14:36:49.194Z,16.31
2023-04-18T14:41:49.701Z,15.88
2023-04-18T14:46:56.204Z,15.94
2023-04-18T14:52:18.644Z,16.35
2023-04-18T14:57:24.984Z,16.47
2023-04-18T15:08:01.856Z,16.38
2023-04-18T15:13:02.063Z,16.01
2023-04-18T15:18:10.158Z,16.50
2023-04-18T15:23:15.965Z,16.04
2023-04-18T15:28:13.932Z,16.07
2023-04-18T15:33:15.422Z,15.81
2023-04-18T15:38:21.508Z,15.93
2023-04-18T15:43:18.640Z,15.66
2023-04-18T15:48:45.168Z,15.52
2023-04-18T15:53:45.653Z,15.88
2023-04-18T15:58:46.043Z,15.64
2023-04-18T16:03:47.570Z,15.68
2023-04-18T16:08:45.294Z,15.15
2023-04-18T16:13:43.230Z,15.22
2023-04-18T16:18:47.313Z,15.18
2023-04-18T16:23:53.546Z,14.91
2023-04-18T16:28:57.970Z,15.23
2023-04-18T16:34:02.905Z,15.04
2023-04-18T16:39:16.886Z,15.04
2023-04-18T16:44:42.358Z,14.90
2023-04-18T16:49:43.209Z,15.26
2023-04-18T16:54:53.941Z,15.27
2023-04-18T17:05:32.825Z,15.54
2023-04-18T17:10:35.678Z,15.74
2023-04-18T17:15:46.117Z,15.87
2023-04-18T17:20:49.363Z,15.53
2023-04-18T17:25:49.584Z,15.51
2023-04-18T17:30:50.340Z,16.05
2023-04-18T17:36:09.774Z,15.70
2023-04-18T17:41:27.896Z,16.01
2023-04-18T17:46:32.022Z,15.95
2023-04-18T17:51:32.059Z,15.79
2023-04-18T17:56:40.617Z,15.54
2023-04-18T18:02:02.078Z,15.58
2023-04-18T18:07:15.567Z,15.33
2023-04-18T18:12:22.710Z,15.06
2023-04-18T18:17:32.956Z,14.68
2023-04-18T18:23:10.034Z,14.49
2023-04-18T18:28:14.732Z,14.45
2023-04-18T18:33:19.174Z,14.26
2023-04-18T18:38:19.414Z,14.21
2023-04-18T18:43:26.841Z,14.16
2023-04-18T18:48:27.494Z,13.94
2023-04-18T18:53:26.422Z,14.45
2023-04-18T18:58:24.810Z,14.16
2023-04-18T19:04:08.681Z,14.20
2023-04-18T19:09:13.399Z,14.19
2023-04-18T19:14:31.086Z,14.12
2023-04-18T19:19:42.576Z,13.62
2023-04-18T19:41:48.964Z,13.42
2023-04-18T19:46:51.686Z,13.26
2023-04-18T19:51:54.978Z,13.41
2023-04-18T19:56:59.276Z,13.47
2023-04-18T20:02:07.081Z,13.40
2023-04-18T20:07:04.043Z,13.31
2023-04-18T20:12:01.480Z,12.77
2023-04-18T20:17:28.111Z,12.70
2023-04-18T20:22:34.297Z,12.70
2023-04-18T20:27:38.570Z,12.74
2023-04-18T20:32:40.320Z,12.54
2023-04-18T20:37:40.855Z,12.46
2023-04-18T20:42:38.657Z,12.25
2023-04-18T20:47:36.365Z,12.32
2023-04-18T20:52:34.405Z,12.46
2023-04-18T20:57:33.370Z,12.32
2023-04-18T21:02:31.191Z,11.74
2023-04-18T21:07:31.635Z,11.63
2023-04-18T21:12:29.634Z,11.77
2023-04-18T21:17:26.787Z,11.51
2023-04-18T21:22:40.027Z,11.47
2023-04-18T21:27:40.612Z,11.54
2023-04-18T21:32:38.835Z,11.51
2023-04-18T21:37:41.500Z,11.39
2023-04-18T21:42:46.542Z,11.43
2023-04-18T21:47:54.144Z,11.43
2023-04-18T21:52:51.695Z,11.38
2023-04-18T21:57:53.865Z,11.54
2023-04-18T22:02:53.660Z,11.36
2023-04-18T22:07:58.131Z,10.89
2023-04-18T22:12:58.264Z,11.37
2023-04-18T22:17:58.540Z,11.24
2023-04-18T22:23:02.120Z,10.91
2023-04-18T22:28:06.909Z,11.37
2023-04-18T22:33:20.431Z,11.25
2023-04-18T22:38:31.299Z,10.81
2023-04-18T22:43:51.141Z,11.09
2023-04-18T22:48:52.365Z,10.60
2023-04-18T22:53:55.720Z,10.82
2023-04-18T22:59:20.734Z,10.32
2023-04-18T23:04:36.435Z,10.46
2023-04-18T23:09:56.522Z,10.72
2023-04-18T23:23:19.951Z,10.52
